KGYR

Phoenix Goodyear Airport

Goodyear, Arizona, USA
METAR KGYR 211347Z VRB03KT 10SM FEW200 BKN250 23/01 A2977
Observed Flight Rules
May-21 @ 13:47 UTC (an hour ago) Visual Flight Rules
Wind Visibility Clouds
Variable at 3 knots 10 miles
  • Few at 20,000' AGL
  • Broken at 25,000' AGL
Temperatures Readings
Current 23°C / 73°F
Dewpoint 1°C / 34°F
Humidity 23%
Altimeter 29.77" Hg
Pressure 1008 hPa
Elevation 295
METAR KGYR 211347Z VRB03KT 10SM FEW200 BKN250 23/01 A2977
Observed Flight Rules
May-21 @ 13:47 UTC
(an hour ago)
VFR
Wind Visibility
Variable at 3 knots 10 miles
Clouds
  • Few at 20,000' AGL
  • Broken at 25,000' AGL
Temperature Dewpoint
23°C / 73°F 1°C / 34°F
Humidity Altimeter Pressure
23% 29.77" Hg 1008 hPa